sensor_id;sensor_type;location;lat;lon;timestamp;pressure;altitude;pressure_sealevel;temperature;humidity
67373;BME280;54257;54.496;18.412;2022-09-12T00:01:57;99668.25;;;10.66;75.21
67373;BME280;54257;54.496;18.412;2022-09-12T00:04:24;99668.41;;;10.64;75.27
67373;BME280;54257;54.496;18.412;2022-09-12T00:06:53;99672.49;;;10.62;75.46
67373;BME280;54257;54.496;18.412;2022-09-12T00:09:20;99673.84;;;10.61;75.42
67373;BME280;54257;54.496;18.412;2022-09-12T00:11:47;99675.89;;;10.60;75.60
67373;BME280;54257;54.496;18.412;2022-09-12T00:14:16;99674.68;;;10.59;75.47
67373;BME280;54257;54.496;18.412;2022-09-12T00:16:44;99675.89;;;10.60;75.63
67373;BME280;54257;54.496;18.412;2022-09-12T00:19:11;99672.13;;;10.59;75.62
67373;BME280;54257;54.496;18.412;2022-09-12T00:21:39;99676.54;;;10.59;75.69
67373;BME280;54257;54.496;18.412;2022-09-12T00:24:09;99672.42;;;10.57;75.80
67373;BME280;54257;54.496;18.412;2022-09-12T00:26:36;99673.79;;;10.57;75.84
67373;BME280;54257;54.496;18.412;2022-09-12T00:29:03;99672.41;;;10.56;75.82
67373;BME280;54257;54.496;18.412;2022-09-12T00:31:30;99671.38;;;10.55;75.76
67373;BME280;54257;54.496;18.412;2022-09-12T00:33:59;99672.90;;;10.54;75.81
67373;BME280;54257;54.496;18.412;2022-09-12T00:36:29;99674.92;;;10.52;75.86
67373;BME280;54257;54.496;18.412;2022-09-12T00:38:56;99673.85;;;10.49;76.01
67373;BME280;54257;54.496;18.412;2022-09-12T00:41:31;99674.54;;;10.48;75.97
67373;BME280;54257;54.496;18.412;2022-09-12T00:52:04;99666.98;;;10.44;76.14
67373;BME280;54257;54.496;18.412;2022-09-12T00:55:00;99670.37;;;10.43;76.14
67373;BME280;54257;54.496;18.412;2022-09-12T00:57:36;99669.67;;;10.42;76.16
67373;BME280;54257;54.496;18.412;2022-09-12T01:00:12;99670.51;;;10.40;76.29
67373;BME280;54257;54.496;18.412;2022-09-12T01:02:45;99669.81;;;10.40;76.28
67373;BME280;54257;54.496;18.412;2022-09-12T01:05:15;99671.86;;;10.38;76.22
67373;BME280;54257;54.496;18.412;2022-09-12T01:07:42;99671.86;;;10.38;76.21
67373;BME280;54257;54.496;18.412;2022-09-12T01:10:10;99673.38;;;10.36;76.25
67373;BME280;54257;54.496;18.412;2022-09-12T01:12:41;99676.60;;;10.34;76.24
67373;BME280;54257;54.496;18.412;2022-09-12T01:15:09;99675.53;;;10.33;76.29
67373;BME280;54257;54.496;18.412;2022-09-12T01:17:50;99673.30;;;10.31;76.37
67373;BME280;54257;54.496;18.412;2022-09-12T01:31:08;99673.27;;;10.26;76.55
67373;BME280;54257;54.496;18.412;2022-09-12T01:37:07;99669.89;;;10.20;76.68
67373;BME280;54257;54.496;18.412;2022-09-12T01:40:05;99668.50;;;10.19;76.77
67373;BME280;54257;54.496;18.412;2022-09-12T01:42:33;99667.94;;;10.16;76.86
67373;BME280;54257;54.496;18.412;2022-09-12T01:47:51;99675.58;;;10.12;77.07
67373;BME280;54257;54.496;18.412;2022-09-12T01:51:20;99680.84;;;10.09;77.10
67373;BME280;54257;54.496;18.412;2022-09-12T01:53:43;99682.86;;;10.08;77.24
67373;BME280;54257;54.496;18.412;2022-09-12T01:56:24;99684.89;;;10.07;77.35
67373;BME280;54257;54.496;18.412;2022-09-12T01:59:04;99686.08;;;10.06;77.48
67373;BME280;54257;54.496;18.412;2022-09-12T02:01:38;99683.67;;;10.05;77.65
67373;BME280;54257;54.496;18.412;2022-09-12T02:04:35;99683.34;;;10.05;77.56
67373;BME280;54257;54.496;18.412;2022-09-12T02:07:31;99680.43;;;10.04;77.80
67373;BME280;54257;54.496;18.412;2022-09-12T02:10:21;99680.94;;;10.05;77.67
67373;BME280;54257;54.496;18.412;2022-09-12T02:12:59;99682.14;;;10.05;77.76
67373;BME280;54257;54.496;18.412;2022-09-12T02:15:33;99679.23;;;10.04;77.79
67373;BME280;54257;54.496;18.412;2022-09-12T02:18:03;99676.34;;;10.05;77.82
67373;BME280;54257;54.496;18.412;2022-09-12T02:20:34;99678.04;;;10.04;77.79
67373;BME280;54257;54.496;18.412;2022-09-12T02:23:07;99676.33;;;10.05;77.74
67373;BME280;54257;54.496;18.412;2022-09-12T02:25:39;99675.31;;;10.04;77.68
67373;BME280;54257;54.496;18.412;2022-09-12T02:28:13;99676.67;;;10.04;77.84
67373;BME280;54257;54.496;18.412;2022-09-12T02:30:44;99678.17;;;10.02;77.83
67373;BME280;54257;54.496;18.412;2022-09-12T02:33:20;99678.98;;;9.99;77.96
67373;BME280;54257;54.496;18.412;2022-09-12T02:36:18;99681.35;;;9.97;77.91
67373;BME280;54257;54.496;18.412;2022-09-12T02:38:56;99685.61;;;9.97;78.04
67373;BME280;54257;54.496;18.412;2022-09-12T02:41:23;99685.08;;;9.96;78.04
67373;BME280;54257;54.496;18.412;2022-09-12T02:43:51;99686.95;;;9.95;78.05
67373;BME280;54257;54.496;18.412;2022-09-12T02:46:25;99688.48;;;9.95;78.03
67373;BME280;54257;54.496;18.412;2022-09-12T02:48:55;99685.94;;;9.95;78.03
67373;BME280;54257;54.496;18.412;2022-09-12T02:51:24;99686.10;;;9.95;78.04
67373;BME280;54257;54.496;18.412;2022-09-12T02:53:52;99684.22;;;9.95;78.10
67373;BME280;54257;54.496;18.412;2022-09-12T02:56:26;99684.19;;;9.94;78.14
67373;BME280;54257;54.496;18.412;2022-09-12T02:58:55;99684.36;;;9.93;78.06
67373;BME280;54257;54.496;18.412;2022-09-12T03:04:36;99684.33;;;9.92;78.11
67373;BME280;54257;54.496;18.412;2022-09-12T03:10:27;99687.55;;;9.90;78.23
67373;BME280;54257;54.496;18.412;2022-09-12T03:13:14;99693.16;;;9.89;78.21
67373;BME280;54257;54.496;18.412;2022-09-12T03:19:15;99692.63;;;9.86;78.41
67373;BME280;54257;54.496;18.412;2022-09-12T03:22:18;99691.55;;;9.84;78.40
67373;BME280;54257;54.496;18.412;2022-09-12T03:27:45;99696.65;;;9.83;78.60
67373;BME280;54257;54.496;18.412;2022-09-12T03:30:18;99698.69;;;9.81;78.63
67373;BME280;54257;54.496;18.412;2022-09-12T03:32:47;99700.20;;;9.80;78.67
67373;BME280;54257;54.496;18.412;2022-09-12T03:35:16;99698.66;;;9.79;78.70
67373;BME280;54257;54.496;18.412;2022-09-12T03:37:44;99702.21;;;9.78;78.77
67373;BME280;54257;54.496;18.412;2022-09-12T03:40:11;99704.59;;;9.77;78.80
67373;BME280;54257;54.496;18.412;2022-09-12T03:42:38;99707.82;;;9.77;78.83
67373;BME280;54257;54.496;18.412;2022-09-12T03:45:06;99708.14;;;9.76;79.09
67373;BME280;54257;54.496;18.412;2022-09-12T03:47:34;99708.48;;;9.75;79.16
67373;BME280;54257;54.496;18.412;2022-09-12T03:50:01;99708.63;;;9.75;79.02
67373;BME280;54257;54.496;18.412;2022-09-12T03:52:29;99709.83;;;9.75;79.12
67373;BME280;54257;54.496;18.412;2022-09-12T03:54:56;99708.80;;;9.75;79.02
67373;BME280;54257;54.496;18.412;2022-09-12T03:57:23;99708.64;;;9.75;79.10
67373;BME280;54257;54.496;18.412;2022-09-12T03:59:50;99710.50;;;9.75;79.04
67373;BME280;54257;54.496;18.412;2022-09-12T04:02:17;99716.14;;;9.75;79.15
67373;BME280;54257;54.496;18.412;2022-09-12T04:04:44;99714.09;;;9.74;78.98
67373;BME280;54257;54.496;18.412;2022-09-12T04:07:14;99714.43;;;9.74;78.86
67373;BME280;54257;54.496;18.412;2022-09-12T04:09:42;99714.42;;;9.75;78.86
67373;BME280;54257;54.496;18.412;2022-09-12T04:12:09;99712.88;;;9.74;78.92
67373;BME280;54257;54.496;18.412;2022-09-12T04:14:37;99712.71;;;9.73;78.94
67373;BME280;54257;54.496;18.412;2022-09-12T04:17:04;99710.64;;;9.71;78.92
67373;BME280;54257;54.496;18.412;2022-09-12T04:19:31;99711.99;;;9.71;78.89
67373;BME280;54257;54.496;18.412;2022-09-12T04:21:58;99715.04;;;9.70;79.02
67373;BME280;54257;54.496;18.412;2022-09-12T04:24:25;99714.52;;;9.69;79.04
67373;BME280;54257;54.496;18.412;2022-09-12T04:26:52;99717.38;;;9.68;79.07
67373;BME280;54257;54.496;18.412;2022-09-12T04:29:20;99718.90;;;9.66;79.11
67373;BME280;54257;54.496;18.412;2022-09-12T04:31:47;99722.48;;;9.67;79.29
67373;BME280;54257;54.496;18.412;2022-09-12T04:34:14;99722.84;;;9.67;79.36
67373;BME280;54257;54.496;18.412;2022-09-12T04:36:42;99718.39;;;9.66;79.39
67373;BME280;54257;54.496;18.412;2022-09-12T04:39:09;99721.98;;;9.67;79.34
67373;BME280;54257;54.496;18.412;2022-09-12T04:41:39;99723.52;;;9.67;79.35
67373;BME280;54257;54.496;18.412;2022-09-12T04:44:10;99728.45;;;9.66;79.41
67373;BME280;54257;54.496;18.412;2022-09-12T04:46:41;99728.45;;;9.66;79.46
67373;BME280;54257;54.496;18.412;2022-09-12T04:49:11;99730.51;;;9.67;79.66
67373;BME280;54257;54.496;18.412;2022-09-12T04:51:42;99727.27;;;9.68;79.65
67373;BME280;54257;54.496;18.412;2022-09-12T04:54:12;99731.08;;;9.69;79.73
67373;BME280;54257;54.496;18.412;2022-09-12T04:56:44;99727.00;;;9.71;79.72
67373;BME280;54257;54.496;18.412;2022-09-12T04:59:12;99729.23;;;9.72;79.60
67373;BME280;54257;54.496;18.412;2022-09-12T05:01:41;99730.80;;;9.74;79.68
67373;BME280;54257;54.496;18.412;2022-09-12T05:04:09;99728.77;;;9.75;79.68
67373;BME280;54257;54.496;18.412;2022-09-12T05:06:36;99725.77;;;9.79;79.89
67373;BME280;54257;54.496;18.412;2022-09-12T05:09:05;99727.19;;;9.83;80.02
67373;BME280;54257;54.496;18.412;2022-09-12T05:11:36;99731.19;;;9.88;80.10
67373;BME280;54257;54.496;18.412;2022-09-12T05:14:03;99736.16;;;9.90;80.08
67373;BME280;54257;54.496;18.412;2022-09-12T05:16:31;99736.02;;;9.92;80.04
67373;BME280;54257;54.496;18.412;2022-09-12T05:18:59;99730.43;;;9.94;80.15
67373;BME280;54257;54.496;18.412;2022-09-12T05:21:26;99733.38;;;9.97;80.10
67373;BME280;54257;54.496;18.412;2022-09-12T05:23:55;99732.73;;;10.00;80.19
67373;BME280;54257;54.496;18.412;2022-09-12T05:26:24;99737.39;;;10.02;80.15
67373;BME280;54257;54.496;18.412;2022-09-12T05:28:53;99736.07;;;10.05;80.24
67373;BME280;54257;54.496;18.412;2022-09-12T05:31:25;99739.00;;;10.08;80.35
67373;BME280;54257;54.496;18.412;2022-09-12T05:33:54;99741.98;;;10.13;80.48
67373;BME280;54257;54.496;18.412;2022-09-12T05:36:27;99741.39;;;10.20;80.65
67373;BME280;54257;54.496;18.412;2022-09-12T05:38:55;99744.42;;;10.26;80.81
67373;BME280;54257;54.496;18.412;2022-09-12T05:41:25;99739.20;;;10.31;80.79
67373;BME280;54257;54.496;18.412;2022-09-12T05:43:55;99740.46;;;10.36;80.66
67373;BME280;54257;54.496;18.412;2022-09-12T05:46:26;99743.27;;;10.42;80.70
67373;BME280;54257;54.496;18.412;2022-09-12T05:48:54;99744.70;;;10.46;80.62
67373;BME280;54257;54.496;18.412;2022-09-12T05:51:24;99742.39;;;10.52;80.71
67373;BME280;54257;54.496;18.412;2022-09-12T05:53:55;99741.60;;;10.58;80.75
67373;BME280;54257;54.496;18.412;2022-09-12T05:56:25;99742.02;;;10.63;80.76
67373;BME280;54257;54.496;18.412;2022-09-12T05:58:56;99743.46;;;10.70;80.70
67373;BME280;54257;54.496;18.412;2022-09-12T06:01:25;99745.61;;;10.77;80.69
67373;BME280;54257;54.496;18.412;2022-09-12T06:03:54;99748.59;;;10.83;80.65
67373;BME280;54257;54.496;18.412;2022-09-12T06:06:24;99753.82;;;10.92;80.72
67373;BME280;54257;54.496;18.412;2022-09-12T06:08:53;99753.25;;;11.02;80.89
67373;BME280;54257;54.496;18.412;2022-09-12T06:11:24;99750.30;;;11.14;81.01
67373;BME280;54257;54.496;18.412;2022-09-12T06:13:52;99751.48;;;11.28;81.08
67373;BME280;54257;54.496;18.412;2022-09-12T06:16:21;99750.59;;;11.43;81.47
67373;BME280;54257;54.496;18.412;2022-09-12T06:18:57;99748.25;;;11.67;82.33
67373;BME280;54257;54.496;18.412;2022-09-12T06:21:25;99747.67;;;11.97;82.20
67373;BME280;54257;54.496;18.412;2022-09-12T06:23:54;99751.96;;;12.24;82.00
67373;BME280;54257;54.496;18.412;2022-09-12T06:26:22;99747.90;;;12.62;82.67
67373;BME280;54257;54.496;18.412;2022-09-12T06:28:52;99743.08;;;13.02;81.84
67373;BME280;54257;54.496;18.412;2022-09-12T06:31:24;99748.34;;;13.43;81.37
67373;BME280;54257;54.496;18.412;2022-09-12T06:33:53;99749.58;;;13.84;80.42
67373;BME280;54257;54.496;18.412;2022-09-12T06:36:28;99751.43;;;14.26;79.92
67373;BME280;54257;54.496;18.412;2022-09-12T06:39:09;99748.41;;;14.74;78.90
67373;BME280;54257;54.496;18.412;2022-09-12T06:41:37;99747.68;;;15.17;77.20
67373;BME280;54257;54.496;18.412;2022-09-12T06:44:04;99751.77;;;15.52;75.67
67373;BME280;54257;54.496;18.412;2022-09-12T06:46:32;99750.70;;;15.83;74.40
67373;BME280;54257;54.496;18.412;2022-09-12T06:49:00;99755.55;;;16.19;73.70
67373;BME280;54257;54.496;18.412;2022-09-12T06:51:30;99752.23;;;16.55;71.76
67373;BME280;54257;54.496;18.412;2022-09-12T06:53:57;99756.03;;;16.88;70.47
67373;BME280;54257;54.496;18.412;2022-09-12T06:56:25;99754.73;;;17.21;69.30
67373;BME280;54257;54.496;18.412;2022-09-12T06:58:59;99754.87;;;17.48;67.99
67373;BME280;54257;54.496;18.412;2022-09-12T07:01:30;99758.17;;;17.82;67.29
67373;BME280;54257;54.496;18.412;2022-09-12T07:03:59;99757.42;;;18.15;66.10
67373;BME280;54257;54.496;18.412;2022-09-12T07:06:31;99757.30;;;18.51;65.12
67373;BME280;54257;54.496;18.412;2022-09-12T07:09:04;99756.30;;;18.77;63.19
67373;BME280;54257;54.496;18.412;2022-09-12T07:11:33;99753.13;;;19.04;62.89
67373;BME280;54257;54.496;18.412;2022-09-12T07:14:02;99754.39;;;19.41;61.43
67373;BME280;54257;54.496;18.412;2022-09-12T07:16:31;99756.26;;;19.66;59.10
67373;BME280;54257;54.496;18.412;2022-09-12T07:19:00;99754.67;;;19.81;58.13
67373;BME280;54257;54.496;18.412;2022-09-12T07:21:29;99757.47;;;20.09;57.58
67373;BME280;54257;54.496;18.412;2022-09-12T07:23:56;99759.34;;;20.36;56.79
67373;BME280;54257;54.496;18.412;2022-09-12T07:26:26;99761.30;;;20.55;55.62
67373;BME280;54257;54.496;18.412;2022-09-12T07:28:55;99756.77;;;20.80;55.82
67373;BME280;54257;54.496;18.412;2022-09-12T07:31:25;99763.03;;;21.10;55.90
67373;BME280;54257;54.496;18.412;2022-09-12T07:33:52;99765.61;;;21.28;52.52
67373;BME280;54257;54.496;18.412;2022-09-12T07:36:22;99768.66;;;21.37;51.69
67373;BME280;54257;54.496;18.412;2022-09-12T07:38:53;99770.77;;;21.53;51.85
67373;BME280;54257;54.496;18.412;2022-09-12T07:41:23;99771.86;;;21.63;51.14
67373;BME280;54257;54.496;18.412;2022-09-12T07:43:52;99772.04;;;21.73;50.78
67373;BME280;54257;54.496;18.412;2022-09-12T07:46:20;99773.20;;;21.80;49.59
67373;BME280;54257;54.496;18.412;2022-09-12T07:48:49;99775.89;;;21.99;50.22
67373;BME280;54257;54.496;18.412;2022-09-12T07:51:17;99779.58;;;22.20;48.79
67373;BME280;54257;54.496;18.412;2022-09-12T07:53:45;99779.79;;;22.23;49.07
67373;BME280;54257;54.496;18.412;2022-09-12T07:56:12;99781.29;;;22.36;48.72
67373;BME280;54257;54.496;18.412;2022-09-12T07:58:41;99781.23;;;22.57;48.29
67373;BME280;54257;54.496;18.412;2022-09-12T08:03:42;99774.45;;;23.05;47.93
67373;BME280;54257;54.496;18.412;2022-09-12T08:06:12;99782.66;;;23.37;47.66
67373;BME280;54257;54.496;18.412;2022-09-12T08:08:40;99780.83;;;23.62;45.02
67373;BME280;54257;54.496;18.412;2022-09-12T08:11:10;99782.11;;;23.78;45.28
67373;BME280;54257;54.496;18.412;2022-09-12T08:13:39;99782.62;;;23.91;44.47
67373;BME280;54257;54.496;18.412;2022-09-12T08:16:09;99785.57;;;23.99;43.23
67373;BME280;54257;54.496;18.412;2022-09-12T08:18:37;99789.19;;;23.66;42.78
67373;BME280;54257;54.496;18.412;2022-09-12T08:21:26;99786.31;;;23.37;43.30
67373;BME280;54257;54.496;18.412;2022-09-12T08:23:58;99787.09;;;23.12;43.80
67373;BME280;54257;54.496;18.412;2022-09-12T08:26:31;99794.36;;;22.95;44.57
67373;BME280;54257;54.496;18.412;2022-09-12T08:28:59;99794.52;;;22.65;43.88
67373;BME280;54257;54.496;18.412;2022-09-12T08:31:27;99797.53;;;22.29;43.35
67373;BME280;54257;54.496;18.412;2022-09-12T08:33:55;99793.34;;;22.19;44.26
67373;BME280;54257;54.496;18.412;2022-09-12T08:36:26;99792.10;;;22.10;44.11
67373;BME280;54257;54.496;18.412;2022-09-12T08:38:56;99796.58;;;21.99;44.24
67373;BME280;54257;54.496;18.412;2022-09-12T08:42:09;99798.52;;;21.72;44.37
67373;BME280;54257;54.496;18.412;2022-09-12T08:45:07;99797.26;;;21.40;44.59
67373;BME280;54257;54.496;18.412;2022-09-12T08:47:40;99802.02;;;21.13;45.28
67373;BME280;54257;54.496;18.412;2022-09-12T08:55:39;99796.22;;;22.11;44.89
67373;BME280;54257;54.496;18.412;2022-09-12T08:58:14;99797.91;;;22.48;45.24
67373;BME280;54257;54.496;18.412;2022-09-12T09:04:09;99797.41;;;23.02;42.56
67373;BME280;54257;54.496;18.412;2022-09-12T09:09:47;99789.48;;;23.67;42.18
67373;BME280;54257;54.496;18.412;2022-09-12T09:15:32;99798.23;;;23.31;41.27
67373;BME280;54257;54.496;18.412;2022-09-12T09:18:25;99805.31;;;22.90;41.76
67373;BME280;54257;54.496;18.412;2022-09-12T09:20:58;99805.35;;;22.99;43.13
67373;BME280;54257;54.496;18.412;2022-09-12T09:23:41;99795.95;;;23.27;41.44
67373;BME280;54257;54.496;18.412;2022-09-12T09:26:16;99797.09;;;23.56;42.13
67373;BME280;54257;54.496;18.412;2022-09-12T09:29:00;99797.11;;;23.91;40.81
67373;BME280;54257;54.496;18.412;2022-09-12T09:31:36;99800.68;;;23.71;40.45
67373;BME280;54257;54.496;18.412;2022-09-12T09:34:17;99802.27;;;23.39;40.86
67373;BME280;54257;54.496;18.412;2022-09-12T09:36:48;99808.08;;;23.01;40.90
67373;BME280;54257;54.496;18.412;2022-09-12T09:44:37;99803.40;;;23.28;42.47
67373;BME280;54257;54.496;18.412;2022-09-12T09:47:09;99804.20;;;23.20;41.10
67373;BME280;54257;54.496;18.412;2022-09-12T09:49:38;99812.05;;;22.92;41.05
67373;BME280;54257;54.496;18.412;2022-09-12T09:52:07;99815.41;;;22.66;41.88
67373;BME280;54257;54.496;18.412;2022-09-12T09:54:55;99815.14;;;22.59;42.96
67373;BME280;54257;54.496;18.412;2022-09-12T09:57:39;99811.57;;;23.00;43.56
67373;BME280;54257;54.496;18.412;2022-09-12T10:03:38;99804.73;;;24.00;41.67
67373;BME280;54257;54.496;18.412;2022-09-12T10:06:29;99801.30;;;23.99;39.13
67373;BME280;54257;54.496;18.412;2022-09-12T10:09:16;99802.59;;;23.49;39.89
67373;BME280;54257;54.496;18.412;2022-09-12T10:11:44;99809.55;;;23.17;40.74
67373;BME280;54257;54.496;18.412;2022-09-12T10:17:40;99800.61;;;23.77;40.41
67373;BME280;54257;54.496;18.412;2022-09-12T10:23:15;99793.58;;;24.78;38.78
67373;BME280;54257;54.496;18.412;2022-09-12T10:25:55;99796.23;;;24.96;37.51
67373;BME280;54257;54.496;18.412;2022-09-12T10:28:36;99798.91;;;24.99;38.16
67373;BME280;54257;54.496;18.412;2022-09-12T10:31:12;99800.83;;;24.92;37.32
67373;BME280;54257;54.496;18.412;2022-09-12T10:33:45;99800.38;;;24.58;37.38
67373;BME280;54257;54.496;18.412;2022-09-12T10:36:21;99797.85;;;24.68;38.07
67373;BME280;54257;54.496;18.412;2022-09-12T10:38:55;99797.37;;;25.06;38.29
67373;BME280;54257;54.496;18.412;2022-09-12T10:41:23;99794.38;;;25.52;38.05
67373;BME280;54257;54.496;18.412;2022-09-12T10:43:51;99795.48;;;25.62;36.96
67373;BME280;54257;54.496;18.412;2022-09-12T10:48:46;99798.86;;;25.12;36.99
67373;BME280;54257;54.496;18.412;2022-09-12T10:53:53;99794.09;;;25.28;36.85
67373;BME280;54257;54.496;18.412;2022-09-12T10:56:31;99794.65;;;25.50;36.06
67373;BME280;54257;54.496;18.412;2022-09-12T11:01:49;99791.06;;;25.88;35.22
67373;BME280;54257;54.496;18.412;2022-09-12T11:12:38;99799.57;;;25.04;35.17
67373;BME280;54257;54.496;18.412;2022-09-12T11:15:17;99808.31;;;24.69;35.72
67373;BME280;54257;54.496;18.412;2022-09-12T11:20:37;99799.26;;;24.95;35.16
67373;BME280;54257;54.496;18.412;2022-09-12T11:23:33;99793.65;;;25.08;34.69
67373;BME280;54257;54.496;18.412;2022-09-12T11:34:43;99793.24;;;25.35;35.44
67373;BME280;54257;54.496;18.412;2022-09-12T11:37:27;99796.77;;;25.31;35.59
67373;BME280;54257;54.496;18.412;2022-09-12T11:40:04;99795.05;;;25.23;35.44
67373;BME280;54257;54.496;18.412;2022-09-12T11:42:38;99798.56;;;25.37;36.09
67373;BME280;54257;54.496;18.412;2022-09-12T11:47:38;99796.13;;;25.75;34.31
67373;BME280;54257;54.496;18.412;2022-09-12T11:50:28;99797.83;;;25.79;33.87
67373;BME280;54257;54.496;18.412;2022-09-12T11:53:16;99799.86;;;25.91;33.26
67373;BME280;54257;54.496;18.412;2022-09-12T11:56:15;99800.85;;;26.07;33.08
67373;BME280;54257;54.496;18.412;2022-09-12T11:58:49;99800.73;;;26.23;33.15
67373;BME280;54257;54.496;18.412;2022-09-12T12:01:31;99806.14;;;26.34;33.49
67373;BME280;54257;54.496;18.412;2022-09-12T12:04:07;99806.59;;;26.32;33.35
67373;BME280;54257;54.496;18.412;2022-09-12T12:07:02;99807.67;;;26.00;33.10
67373;BME280;54257;54.496;18.412;2022-09-12T12:09:31;99809.81;;;25.62;34.52
67373;BME280;54257;54.496;18.412;2022-09-12T12:12:07;99806.31;;;25.48;34.81
67373;BME280;54257;54.496;18.412;2022-09-12T12:14:43;99808.44;;;25.69;34.43
67373;BME280;54257;54.496;18.412;2022-09-12T12:17:21;99805.05;;;25.92;34.35
67373;BME280;54257;54.496;18.412;2022-09-12T12:19:58;99812.23;;;26.07;32.88
67373;BME280;54257;54.496;18.412;2022-09-12T12:22:28;99809.73;;;25.83;33.12
67373;BME280;54257;54.496;18.412;2022-09-12T12:27:56;99810.65;;;25.10;33.54
67373;BME280;54257;54.496;18.412;2022-09-12T12:36:07;99810.05;;;24.77;36.15
67373;BME280;54257;54.496;18.412;2022-09-12T12:38:39;99815.25;;;24.86;35.43
67373;BME280;54257;54.496;18.412;2022-09-12T12:46:19;99819.54;;;24.18;36.30
67373;BME280;54257;54.496;18.412;2022-09-12T12:49:17;99819.21;;;24.26;36.64
67373;BME280;54257;54.496;18.412;2022-09-12T12:51:57;99823.71;;;24.40;36.82
67373;BME280;54257;54.496;18.412;2022-09-12T12:57:14;99807.96;;;24.49;36.34
67373;BME280;54257;54.496;18.412;2022-09-12T12:59:55;99807.23;;;24.53;36.40
67373;BME280;54257;54.496;18.412;2022-09-12T13:02:34;99806.33;;;24.70;36.23
67373;BME280;54257;54.496;18.412;2022-09-12T13:05:12;99807.18;;;24.94;36.48
67373;BME280;54257;54.496;18.412;2022-09-12T13:07:42;99805.58;;;25.07;36.19
67373;BME280;54257;54.496;18.412;2022-09-12T13:10:22;99811.70;;;25.07;35.71
67373;BME280;54257;54.496;18.412;2022-09-12T13:12:51;99814.42;;;25.00;35.09
67373;BME280;54257;54.496;18.412;2022-09-12T13:18:37;99815.23;;;25.02;34.17
67373;BME280;54257;54.496;18.412;2022-09-12T13:21:17;99812.98;;;24.93;34.02
67373;BME280;54257;54.496;18.412;2022-09-12T13:23:59;99803.23;;;24.88;34.03
67373;BME280;54257;54.496;18.412;2022-09-12T13:26:39;99805.20;;;24.92;34.49
67373;BME280;54257;54.496;18.412;2022-09-12T13:31:49;99806.69;;;24.25;35.17
67373;BME280;54257;54.496;18.412;2022-09-12T13:42:46;99798.57;;;24.06;36.59
67373;BME280;54257;54.496;18.412;2022-09-12T13:45:24;99798.70;;;24.15;36.56
67373;BME280;54257;54.496;18.412;2022-09-12T13:48:00;99801.04;;;24.26;36.24
67373;BME280;54257;54.496;18.412;2022-09-12T13:50:37;99797.92;;;24.25;35.96
67373;BME280;54257;54.496;18.412;2022-09-12T13:53:13;99798.83;;;24.33;36.27
67373;BME280;54257;54.496;18.412;2022-09-12T13:55:45;99795.95;;;24.44;36.50
67373;BME280;54257;54.496;18.412;2022-09-12T13:58:27;99797.71;;;24.52;36.71
67373;BME280;54257;54.496;18.412;2022-09-12T14:01:05;99796.61;;;24.45;36.05
67373;BME280;54257;54.496;18.412;2022-09-12T14:03:38;99794.06;;;24.30;36.58
67373;BME280;54257;54.496;18.412;2022-09-12T14:06:24;99798.60;;;24.30;37.47
67373;BME280;54257;54.496;18.412;2022-09-12T14:08:57;99798.63;;;24.29;37.50
67373;BME280;54257;54.496;18.412;2022-09-12T14:11:29;99799.09;;;24.31;37.12
67373;BME280;54257;54.496;18.412;2022-09-12T14:13:57;99797.13;;;24.28;36.70
67373;BME280;54257;54.496;18.412;2022-09-12T14:16:24;99800.34;;;24.22;36.39
67373;BME280;54257;54.496;18.412;2022-09-12T14:18:56;99800.04;;;24.17;36.23
67373;BME280;54257;54.496;18.412;2022-09-12T14:23:57;99806.52;;;23.83;36.57
67373;BME280;54257;54.496;18.412;2022-09-12T14:26:29;99804.34;;;23.67;37.59
67373;BME280;54257;54.496;18.412;2022-09-12T14:29:00;99801.65;;;23.46;38.00
67373;BME280;54257;54.496;18.412;2022-09-12T14:31:34;99800.65;;;23.27;37.89
67373;BME280;54257;54.496;18.412;2022-09-12T14:39:27;99810.46;;;22.48;39.63
67373;BME280;54257;54.496;18.412;2022-09-12T14:42:05;99811.02;;;22.21;40.34
67373;BME280;54257;54.496;18.412;2022-09-12T14:44:33;99809.77;;;22.06;41.04
67373;BME280;54257;54.496;18.412;2022-09-12T14:47:23;99806.73;;;21.93;41.44
67373;BME280;54257;54.496;18.412;2022-09-12T14:49:51;99808.37;;;21.74;42.15
67373;BME280;54257;54.496;18.412;2022-09-12T14:52:27;99807.41;;;21.60;42.47
67373;BME280;54257;54.496;18.412;2022-09-12T14:54:59;99806.99;;;21.45;43.20
67373;BME280;54257;54.496;18.412;2022-09-12T14:57:35;99806.27;;;21.35;43.51
67373;BME280;54257;54.496;18.412;2022-09-12T15:00:24;99808.57;;;21.08;43.74
67373;BME280;54257;54.496;18.412;2022-09-12T15:02:52;99809.19;;;20.99;44.42
67373;BME280;54257;54.496;18.412;2022-09-12T15:05:22;99810.17;;;20.95;44.84
67373;BME280;54257;54.496;18.412;2022-09-12T15:07:51;99808.23;;;20.96;45.29
67373;BME280;54257;54.496;18.412;2022-09-12T15:10:36;99809.14;;;20.95;45.10
67373;BME280;54257;54.496;18.412;2022-09-12T15:15:51;99807.91;;;20.84;45.32
67373;BME280;54257;54.496;18.412;2022-09-12T15:18:20;99809.84;;;20.64;45.43
67373;BME280;54257;54.496;18.412;2022-09-12T15:20:51;99810.84;;;20.52;46.00
67373;BME280;54257;54.496;18.412;2022-09-12T15:23:35;99810.48;;;20.52;46.32
67373;BME280;54257;54.496;18.412;2022-09-12T15:26:04;99810.00;;;20.44;46.45
67373;BME280;54257;54.496;18.412;2022-09-12T15:28:33;99811.58;;;20.22;46.98
67373;BME280;54257;54.496;18.412;2022-09-12T15:31:17;99811.67;;;19.97;47.53
67373;BME280;54257;54.496;18.412;2022-09-12T15:33:47;99812.05;;;19.75;48.15
67373;BME280;54257;54.496;18.412;2022-09-12T15:36:16;99815.05;;;19.65;48.31
67373;BME280;54257;54.496;18.412;2022-09-12T15:38:46;99814.34;;;19.58;48.62
67373;BME280;54257;54.496;18.412;2022-09-12T15:41:20;99818.80;;;19.50;48.71
67373;BME280;54257;54.496;18.412;2022-09-12T15:43:49;99817.55;;;19.45;49.21
67373;BME280;54257;54.496;18.412;2022-09-12T15:46:16;99814.80;;;19.43;49.67